KBWG

Bowling Green-Warren County Regional Airport

Bowling Green, Kentucky, USA
METAR KBWG 231353Z AUTO 18005KT 10SM BKN042 OVC055 17/16 A3028 RMK AO2 LTG DSNT NW SLP251 T01670161
Observed Flight Rules
Feb-23 @ 13:53 UTC (42 minutes ago) Visual Flight Rules
Wind Visibility Clouds
180° at 5 knots 10 miles
  • Broken at 4,200' AGL
  • Overcast at 5,500' AGL
Temperatures Readings
Current 17°C / 63°F
Dewpoint 16°C / 61°F
Humidity 94%
Altimeter 30.28" Hg
Pressure 1025.1 hPa
Elevation 168
METAR KBWG 231353Z AUTO 18005KT 10SM BKN042 OVC055 17/16 A3028 RMK AO2 LTG DSNT NW SLP251 T01670161
Observed Flight Rules
Feb-23 @ 13:53 UTC
(42 minutes ago)
VFR
Wind Visibility
180° at 5 knots 10 miles
Clouds
  • Broken at 4,200' AGL
  • Overcast at 5,500' AGL
Temperature Dewpoint
17°C / 63°F 16°C / 61°F
Humidity Altimeter Pressure
94% 30.28" Hg 1025.1 hPa